sensor_id;sensor_type;location;lat;lon;timestamp;P1;durP1;ratioP1;P2;durP2;ratioP2
18316;SDS011;9284;52.298;21.164;2024-03-29T00:02:08;26.35;;;15.85;;
18316;SDS011;9284;52.298;21.164;2024-03-29T00:04:53;29.27;;;15.82;;
18316;SDS011;9284;52.298;21.164;2024-03-29T00:07:56;24.63;;;14.05;;
18316;SDS011;9284;52.298;21.164;2024-03-29T00:10:23;27.80;;;14.55;;
18316;SDS011;9284;52.298;21.164;2024-03-29T00:12:49;24.33;;;14.27;;
18316;SDS011;9284;52.298;21.164;2024-03-29T00:15:17;27.00;;;13.68;;
18316;SDS011;9284;52.298;21.164;2024-03-29T00:17:43;23.45;;;11.98;;
18316;SDS011;9284;52.298;21.164;2024-03-29T00:20:10;24.67;;;11.45;;
18316;SDS011;9284;52.298;21.164;2024-03-29T00:25:22;21.00;;;10.40;;
18316;SDS011;9284;52.298;21.164;2024-03-29T00:27:49;17.60;;;9.48;;
18316;SDS011;9284;52.298;21.164;2024-03-29T00:30:35;15.75;;;8.68;;
18316;SDS011;9284;52.298;21.164;2024-03-29T00:33:01;15.65;;;8.82;;
18316;SDS011;9284;52.298;21.164;2024-03-29T00:35:28;17.40;;;8.30;;
18316;SDS011;9284;52.298;21.164;2024-03-29T00:37:55;17.30;;;8.07;;
18316;SDS011;9284;52.298;21.164;2024-03-29T00:40:21;14.90;;;8.15;;
18316;SDS011;9284;52.298;21.164;2024-03-29T00:42:47;18.48;;;7.85;;
18316;SDS011;9284;52.298;21.164;2024-03-29T00:45:14;17.50;;;8.38;;
18316;SDS011;9284;52.298;21.164;2024-03-29T00:47:42;16.90;;;7.82;;
18316;SDS011;9284;52.298;21.164;2024-03-29T00:50:08;14.43;;;7.53;;
18316;SDS011;9284;52.298;21.164;2024-03-29T00:52:35;15.90;;;8.57;;
18316;SDS011;9284;52.298;21.164;2024-03-29T00:55:01;15.07;;;7.28;;
18316;SDS011;9284;52.298;21.164;2024-03-29T00:57:28;14.02;;;7.82;;
18316;SDS011;9284;52.298;21.164;2024-03-29T00:59:55;16.70;;;7.70;;
18316;SDS011;9284;52.298;21.164;2024-03-29T01:02:22;16.52;;;7.90;;
18316;SDS011;9284;52.298;21.164;2024-03-29T01:04:50;14.60;;;7.25;;
18316;SDS011;9284;52.298;21.164;2024-03-29T01:07:17;14.40;;;7.00;;
18316;SDS011;9284;52.298;21.164;2024-03-29T01:09:43;15.27;;;7.40;;
18316;SDS011;9284;52.298;21.164;2024-03-29T01:12:10;16.00;;;8.25;;
18316;SDS011;9284;52.298;21.164;2024-03-29T01:14:37;15.65;;;7.13;;
18316;SDS011;9284;52.298;21.164;2024-03-29T01:17:03;13.73;;;8.35;;
18316;SDS011;9284;52.298;21.164;2024-03-29T01:19:30;15.90;;;8.15;;
18316;SDS011;9284;52.298;21.164;2024-03-29T01:21:58;17.88;;;7.63;;
18316;SDS011;9284;52.298;21.164;2024-03-29T01:24:24;14.25;;;8.15;;
18316;SDS011;9284;52.298;21.164;2024-03-29T01:26:50;13.05;;;7.60;;
18316;SDS011;9284;52.298;21.164;2024-03-29T01:29:17;11.60;;;7.55;;
18316;SDS011;9284;52.298;21.164;2024-03-29T01:32:01;13.32;;;7.15;;
18316;SDS011;9284;52.298;21.164;2024-03-29T01:34:28;11.82;;;6.40;;
18316;SDS011;9284;52.298;21.164;2024-03-29T01:36:54;11.95;;;6.78;;
18316;SDS011;9284;52.298;21.164;2024-03-29T01:39:22;10.13;;;5.97;;
18316;SDS011;9284;52.298;21.164;2024-03-29T01:44:34;9.27;;;6.38;;
18316;SDS011;9284;52.298;21.164;2024-03-29T01:47:03;13.43;;;6.60;;
18316;SDS011;9284;52.298;21.164;2024-03-29T01:49:30;13.75;;;6.18;;
18316;SDS011;9284;52.298;21.164;2024-03-29T01:51:58;11.32;;;4.78;;
18316;SDS011;9284;52.298;21.164;2024-03-29T01:54:27;7.60;;;4.43;;
18316;SDS011;9284;52.298;21.164;2024-03-29T01:56:54;8.00;;;3.83;;
18316;SDS011;9284;52.298;21.164;2024-03-29T01:59:22;5.15;;;3.47;;
18316;SDS011;9284;52.298;21.164;2024-03-29T02:01:50;6.45;;;4.28;;
18316;SDS011;9284;52.298;21.164;2024-03-29T02:04:17;7.55;;;3.60;;
18316;SDS011;9284;52.298;21.164;2024-03-29T02:07:04;6.28;;;3.70;;
18316;SDS011;9284;52.298;21.164;2024-03-29T02:09:51;8.32;;;3.50;;
18316;SDS011;9284;52.298;21.164;2024-03-29T02:12:19;5.28;;;3.88;;
18316;SDS011;9284;52.298;21.164;2024-03-29T02:14:46;10.65;;;4.82;;
18316;SDS011;9284;52.298;21.164;2024-03-29T02:17:13;12.50;;;6.03;;
18316;SDS011;9284;52.298;21.164;2024-03-29T02:19:40;10.32;;;6.18;;
18316;SDS011;9284;52.298;21.164;2024-03-29T02:22:08;9.48;;;5.93;;
18316;SDS011;9284;52.298;21.164;2024-03-29T02:24:40;14.60;;;5.97;;
18316;SDS011;9284;52.298;21.164;2024-03-29T02:27:07;12.40;;;6.57;;
18316;SDS011;9284;52.298;21.164;2024-03-29T02:29:35;14.98;;;6.28;;
18316;SDS011;9284;52.298;21.164;2024-03-29T02:32:02;10.38;;;5.63;;
18316;SDS011;9284;52.298;21.164;2024-03-29T02:34:30;9.13;;;5.28;;
18316;SDS011;9284;52.298;21.164;2024-03-29T02:36:57;8.45;;;5.03;;
18316;SDS011;9284;52.298;21.164;2024-03-29T02:39:25;5.97;;;3.95;;
18316;SDS011;9284;52.298;21.164;2024-03-29T02:41:53;6.93;;;4.45;;
18316;SDS011;9284;52.298;21.164;2024-03-29T02:44:21;6.50;;;4.60;;
18316;SDS011;9284;52.298;21.164;2024-03-29T02:46:48;8.40;;;4.63;;
18316;SDS011;9284;52.298;21.164;2024-03-29T02:49:15;7.63;;;4.82;;
18316;SDS011;9284;52.298;21.164;2024-03-29T02:51:42;11.98;;;5.25;;
18316;SDS011;9284;52.298;21.164;2024-03-29T02:54:27;8.23;;;5.05;;
18316;SDS011;9284;52.298;21.164;2024-03-29T02:56:55;11.68;;;5.88;;
18316;SDS011;9284;52.298;21.164;2024-03-29T02:59:22;7.35;;;4.85;;
18316;SDS011;9284;52.298;21.164;2024-03-29T03:01:49;10.05;;;5.35;;
18316;SDS011;9284;52.298;21.164;2024-03-29T03:04:16;10.27;;;5.60;;
18316;SDS011;9284;52.298;21.164;2024-03-29T03:06:42;9.75;;;5.35;;
18316;SDS011;9284;52.298;21.164;2024-03-29T03:09:10;9.65;;;5.13;;
18316;SDS011;9284;52.298;21.164;2024-03-29T03:11:56;8.57;;;4.53;;
18316;SDS011;9284;52.298;21.164;2024-03-29T03:14:24;8.40;;;4.50;;
18316;SDS011;9284;52.298;21.164;2024-03-29T03:16:52;8.48;;;5.28;;
18316;SDS011;9284;52.298;21.164;2024-03-29T03:19:18;10.00;;;5.78;;
18316;SDS011;9284;52.298;21.164;2024-03-29T03:21:46;7.75;;;5.03;;
18316;SDS011;9284;52.298;21.164;2024-03-29T03:24:31;7.05;;;4.07;;
18316;SDS011;9284;52.298;21.164;2024-03-29T03:27:00;7.13;;;3.72;;
18316;SDS011;9284;52.298;21.164;2024-03-29T03:29:26;7.97;;;3.83;;
18316;SDS011;9284;52.298;21.164;2024-03-29T03:31:54;7.47;;;3.80;;
18316;SDS011;9284;52.298;21.164;2024-03-29T03:34:20;5.07;;;3.67;;
18316;SDS011;9284;52.298;21.164;2024-03-29T03:36:47;4.82;;;3.40;;
18316;SDS011;9284;52.298;21.164;2024-03-29T03:39:14;4.40;;;3.28;;
18316;SDS011;9284;52.298;21.164;2024-03-29T03:44:28;5.72;;;3.95;;
18316;SDS011;9284;52.298;21.164;2024-03-29T03:46:55;7.30;;;3.30;;
18316;SDS011;9284;52.298;21.164;2024-03-29T03:49:21;5.53;;;3.75;;
18316;SDS011;9284;52.298;21.164;2024-03-29T03:51:49;5.55;;;3.25;;
18316;SDS011;9284;52.298;21.164;2024-03-29T03:54:15;4.43;;;3.47;;
18316;SDS011;9284;52.298;21.164;2024-03-29T03:56:43;5.65;;;3.08;;
18316;SDS011;9284;52.298;21.164;2024-03-29T03:59:10;5.15;;;2.88;;
18316;SDS011;9284;52.298;21.164;2024-03-29T04:01:38;6.32;;;3.05;;
18316;SDS011;9284;52.298;21.164;2024-03-29T04:04:04;6.53;;;3.65;;
18316;SDS011;9284;52.298;21.164;2024-03-29T04:06:31;3.28;;;2.67;;
18316;SDS011;9284;52.298;21.164;2024-03-29T04:08:58;3.13;;;2.40;;
18316;SDS011;9284;52.298;21.164;2024-03-29T04:11:43;6.63;;;2.60;;
18316;SDS011;9284;52.298;21.164;2024-03-29T04:14:11;4.88;;;2.55;;
18316;SDS011;9284;52.298;21.164;2024-03-29T04:16:56;4.70;;;2.78;;
18316;SDS011;9284;52.298;21.164;2024-03-29T04:19:23;5.43;;;2.83;;
18316;SDS011;9284;52.298;21.164;2024-03-29T04:21:50;4.05;;;2.42;;
18316;SDS011;9284;52.298;21.164;2024-03-29T04:24:19;4.78;;;2.47;;
18316;SDS011;9284;52.298;21.164;2024-03-29T04:26:45;5.53;;;2.67;;
18316;SDS011;9284;52.298;21.164;2024-03-29T04:29:14;3.47;;;2.35;;
18316;SDS011;9284;52.298;21.164;2024-03-29T04:31:40;3.35;;;2.05;;
18316;SDS011;9284;52.298;21.164;2024-03-29T04:34:07;3.42;;;2.13;;
18316;SDS011;9284;52.298;21.164;2024-03-29T04:36:53;3.05;;;2.08;;
18316;SDS011;9284;52.298;21.164;2024-03-29T04:39:22;3.28;;;2.10;;
18316;SDS011;9284;52.298;21.164;2024-03-29T04:41:49;3.47;;;2.20;;
18316;SDS011;9284;52.298;21.164;2024-03-29T04:47:04;4.60;;;2.15;;
18316;SDS011;9284;52.298;21.164;2024-03-29T04:49:32;3.70;;;2.20;;
18316;SDS011;9284;52.298;21.164;2024-03-29T04:52:02;3.10;;;2.00;;
18316;SDS011;9284;52.298;21.164;2024-03-29T04:54:30;3.72;;;1.92;;
18316;SDS011;9284;52.298;21.164;2024-03-29T04:56:57;3.25;;;2.13;;
18316;SDS011;9284;52.298;21.164;2024-03-29T04:59:27;4.07;;;2.72;;
18316;SDS011;9284;52.298;21.164;2024-03-29T05:01:56;2.85;;;2.00;;
18316;SDS011;9284;52.298;21.164;2024-03-29T05:04:25;4.90;;;1.90;;
18316;SDS011;9284;52.298;21.164;2024-03-29T05:06:52;3.45;;;2.10;;
18316;SDS011;9284;52.298;21.164;2024-03-29T05:09:20;3.78;;;2.33;;
18316;SDS011;9284;52.298;21.164;2024-03-29T05:11:47;4.68;;;3.05;;
18316;SDS011;9284;52.298;21.164;2024-03-29T05:14:15;6.47;;;3.47;;
18316;SDS011;9284;52.298;21.164;2024-03-29T05:16:44;5.20;;;3.67;;
18316;SDS011;9284;52.298;21.164;2024-03-29T05:19:13;3.90;;;2.67;;
18316;SDS011;9284;52.298;21.164;2024-03-29T05:21:41;3.05;;;2.17;;
18316;SDS011;9284;52.298;21.164;2024-03-29T05:24:09;3.95;;;2.55;;
18316;SDS011;9284;52.298;21.164;2024-03-29T05:26:36;3.70;;;2.45;;
18316;SDS011;9284;52.298;21.164;2024-03-29T05:29:04;5.50;;;2.45;;
18316;SDS011;9284;52.298;21.164;2024-03-29T05:31:33;4.07;;;2.15;;
18316;SDS011;9284;52.298;21.164;2024-03-29T05:34:00;4.40;;;2.50;;
18316;SDS011;9284;52.298;21.164;2024-03-29T05:36:29;6.03;;;2.90;;
18316;SDS011;9284;52.298;21.164;2024-03-29T05:38:57;6.15;;;2.92;;
18316;SDS011;9284;52.298;21.164;2024-03-29T05:41:24;4.55;;;2.90;;
18316;SDS011;9284;52.298;21.164;2024-03-29T05:43:51;6.75;;;2.65;;
18316;SDS011;9284;52.298;21.164;2024-03-29T05:46:37;4.38;;;3.08;;
18316;SDS011;9284;52.298;21.164;2024-03-29T05:49:05;6.85;;;3.28;;
18316;SDS011;9284;52.298;21.164;2024-03-29T05:51:52;9.48;;;4.93;;
18316;SDS011;9284;52.298;21.164;2024-03-29T05:54:20;5.97;;;3.60;;
18316;SDS011;9284;52.298;21.164;2024-03-29T05:56:48;3.80;;;2.88;;
18316;SDS011;9284;52.298;21.164;2024-03-29T05:59:15;5.07;;;2.90;;
18316;SDS011;9284;52.298;21.164;2024-03-29T06:01:42;8.63;;;2.90;;
18316;SDS011;9284;52.298;21.164;2024-03-29T06:04:10;2.65;;;2.33;;
18316;SDS011;9284;52.298;21.164;2024-03-29T06:06:41;4.43;;;2.28;;
18316;SDS011;9284;52.298;21.164;2024-03-29T06:09:10;5.65;;;2.03;;
18316;SDS011;9284;52.298;21.164;2024-03-29T06:11:38;5.85;;;2.50;;
18316;SDS011;9284;52.298;21.164;2024-03-29T06:14:05;3.67;;;2.17;;
18316;SDS011;9284;52.298;21.164;2024-03-29T06:16:49;2.70;;;1.98;;
18316;SDS011;9284;52.298;21.164;2024-03-29T06:19:34;3.75;;;2.10;;
18316;SDS011;9284;52.298;21.164;2024-03-29T06:22:01;2.42;;;1.80;;
18316;SDS011;9284;52.298;21.164;2024-03-29T06:24:31;3.92;;;2.03;;
18316;SDS011;9284;52.298;21.164;2024-03-29T06:26:58;4.15;;;2.17;;
18316;SDS011;9284;52.298;21.164;2024-03-29T06:29:26;4.22;;;2.50;;
18316;SDS011;9284;52.298;21.164;2024-03-29T06:31:53;3.10;;;1.73;;
18316;SDS011;9284;52.298;21.164;2024-03-29T06:34:20;2.53;;;1.80;;
18316;SDS011;9284;52.298;21.164;2024-03-29T06:36:48;3.60;;;1.90;;
18316;SDS011;9284;52.298;21.164;2024-03-29T06:39:15;2.35;;;1.70;;
18316;SDS011;9284;52.298;21.164;2024-03-29T06:47:20;2.13;;;1.58;;
18316;SDS011;9284;52.298;21.164;2024-03-29T06:50:05;3.45;;;2.10;;
18316;SDS011;9284;52.298;21.164;2024-03-29T06:52:33;2.72;;;1.90;;
18316;SDS011;9284;52.298;21.164;2024-03-29T06:55:19;3.78;;;2.10;;
18316;SDS011;9284;52.298;21.164;2024-03-29T06:57:48;2.97;;;1.90;;
18316;SDS011;9284;52.298;21.164;2024-03-29T07:00:15;3.90;;;2.05;;
18316;SDS011;9284;52.298;21.164;2024-03-29T07:02:43;3.00;;;2.08;;
18316;SDS011;9284;52.298;21.164;2024-03-29T07:05:10;4.35;;;2.13;;
18316;SDS011;9284;52.298;21.164;2024-03-29T07:07:38;2.97;;;1.98;;
18316;SDS011;9284;52.298;21.164;2024-03-29T07:10:06;5.47;;;2.22;;
18316;SDS011;9284;52.298;21.164;2024-03-29T07:12:33;3.08;;;1.70;;
18316;SDS011;9284;52.298;21.164;2024-03-29T07:15:02;3.13;;;2.20;;
18316;SDS011;9284;52.298;21.164;2024-03-29T07:17:30;3.03;;;2.03;;
18316;SDS011;9284;52.298;21.164;2024-03-29T07:19:57;4.13;;;2.10;;
18316;SDS011;9284;52.298;21.164;2024-03-29T07:22:43;3.47;;;1.70;;
18316;SDS011;9284;52.298;21.164;2024-03-29T07:25:11;4.28;;;2.22;;
18316;SDS011;9284;52.298;21.164;2024-03-29T07:27:39;3.72;;;2.22;;
18316;SDS011;9284;52.298;21.164;2024-03-29T07:30:08;3.88;;;2.10;;
18316;SDS011;9284;52.298;21.164;2024-03-29T07:32:39;1.85;;;1.60;;
18316;SDS011;9284;52.298;21.164;2024-03-29T07:35:07;4.63;;;2.10;;
18316;SDS011;9284;52.298;21.164;2024-03-29T07:37:34;2.42;;;1.80;;
18316;SDS011;9284;52.298;21.164;2024-03-29T07:40:02;3.20;;;1.70;;
18316;SDS011;9284;52.298;21.164;2024-03-29T07:42:30;2.97;;;2.00;;
18316;SDS011;9284;52.298;21.164;2024-03-29T07:44:57;4.50;;;2.10;;
18316;SDS011;9284;52.298;21.164;2024-03-29T07:47:26;2.65;;;1.90;;
18316;SDS011;9284;52.298;21.164;2024-03-29T07:50:11;2.63;;;1.83;;
18316;SDS011;9284;52.298;21.164;2024-03-29T07:52:40;3.38;;;1.55;;
18316;SDS011;9284;52.298;21.164;2024-03-29T07:55:08;4.00;;;1.65;;
18316;SDS011;9284;52.298;21.164;2024-03-29T07:57:36;2.00;;;1.60;;
18316;SDS011;9284;52.298;21.164;2024-03-29T08:00:04;3.20;;;2.03;;
18316;SDS011;9284;52.298;21.164;2024-03-29T08:02:34;3.60;;;1.95;;
18316;SDS011;9284;52.298;21.164;2024-03-29T08:05:01;3.08;;;1.63;;
18316;SDS011;9284;52.298;21.164;2024-03-29T08:10:15;2.30;;;1.55;;
18316;SDS011;9284;52.298;21.164;2024-03-29T08:15:29;3.03;;;1.67;;
18316;SDS011;9284;52.298;21.164;2024-03-29T08:17:58;2.75;;;1.70;;
18316;SDS011;9284;52.298;21.164;2024-03-29T08:20:25;3.95;;;1.80;;
18316;SDS011;9284;52.298;21.164;2024-03-29T08:23:10;3.72;;;1.73;;
18316;SDS011;9284;52.298;21.164;2024-03-29T08:25:56;2.63;;;1.20;;
18316;SDS011;9284;52.298;21.164;2024-03-29T08:28:23;3.13;;;1.70;;
18316;SDS011;9284;52.298;21.164;2024-03-29T08:31:00;2.33;;;1.48;;
18316;SDS011;9284;52.298;21.164;2024-03-29T08:33:30;2.63;;;1.58;;
18316;SDS011;9284;52.298;21.164;2024-03-29T08:35:58;3.97;;;1.25;;
18316;SDS011;9284;52.298;21.164;2024-03-29T08:38:44;4.07;;;1.30;;
18316;SDS011;9284;52.298;21.164;2024-03-29T08:41:13;2.33;;;1.40;;
18316;SDS011;9284;52.298;21.164;2024-03-29T08:43:41;2.70;;;1.10;;
18316;SDS011;9284;52.298;21.164;2024-03-29T08:46:11;2.17;;;1.20;;
18316;SDS011;9284;52.298;21.164;2024-03-29T08:48:40;1.23;;;1.00;;
18316;SDS011;9284;52.298;21.164;2024-03-29T08:51:09;1.48;;;1.00;;
18316;SDS011;9284;52.298;21.164;2024-03-29T08:53:37;1.13;;;0.90;;
18316;SDS011;9284;52.298;21.164;2024-03-29T08:56:04;2.08;;;1.10;;
18316;SDS011;9284;52.298;21.164;2024-03-29T08:58:31;2.70;;;1.00;;
18316;SDS011;9284;52.298;21.164;2024-03-29T09:00:59;1.70;;;1.15;;
18316;SDS011;9284;52.298;21.164;2024-03-29T09:03:29;2.63;;;1.10;;
18316;SDS011;9284;52.298;21.164;2024-03-29T09:05:59;2.28;;;1.08;;
18316;SDS011;9284;52.298;21.164;2024-03-29T09:08:26;3.88;;;1.50;;
18316;SDS011;9284;52.298;21.164;2024-03-29T09:10:53;1.45;;;1.20;;
18316;SDS011;9284;52.298;21.164;2024-03-29T09:13:21;1.52;;;0.98;;
18316;SDS011;9284;52.298;21.164;2024-03-29T09:15:48;1.58;;;1.48;;
18316;SDS011;9284;52.298;21.164;2024-03-29T09:18:16;5.60;;;1.25;;
18316;SDS011;9284;52.298;21.164;2024-03-29T09:20:55;2.47;;;1.17;;
18316;SDS011;9284;52.298;21.164;2024-03-29T09:23:26;5.35;;;1.40;;
18316;SDS011;9284;52.298;21.164;2024-03-29T09:25:54;1.63;;;1.20;;
18316;SDS011;9284;52.298;21.164;2024-03-29T09:28:36;2.05;;;1.17;;
18316;SDS011;9284;52.298;21.164;2024-03-29T09:31:03;2.10;;;1.48;;
18316;SDS011;9284;52.298;21.164;2024-03-29T09:33:31;3.25;;;1.23;;
18316;SDS011;9284;52.298;21.164;2024-03-29T09:35:58;3.35;;;1.60;;
18316;SDS011;9284;52.298;21.164;2024-03-29T09:38:27;2.60;;;1.35;;
18316;SDS011;9284;52.298;21.164;2024-03-29T09:41:14;1.70;;;1.20;;
18316;SDS011;9284;52.298;21.164;2024-03-29T09:43:43;5.32;;;1.50;;
18316;SDS011;9284;52.298;21.164;2024-03-29T09:46:11;2.47;;;1.33;;
18316;SDS011;9284;52.298;21.164;2024-03-29T09:48:39;6.78;;;1.52;;
18316;SDS011;9284;52.298;21.164;2024-03-29T09:51:08;2.92;;;1.63;;
18316;SDS011;9284;52.298;21.164;2024-03-29T09:53:41;3.25;;;1.35;;
18316;SDS011;9284;52.298;21.164;2024-03-29T09:56:09;1.67;;;1.30;;
18316;SDS011;9284;52.298;21.164;2024-03-29T09:58:37;4.30;;;1.40;;
18316;SDS011;9284;52.298;21.164;2024-03-29T10:01:06;6.45;;;1.55;;
18316;SDS011;9284;52.298;21.164;2024-03-29T10:03:36;2.33;;;1.60;;
18316;SDS011;9284;52.298;21.164;2024-03-29T10:06:07;2.05;;;1.40;;
18316;SDS011;9284;52.298;21.164;2024-03-29T10:08:54;3.85;;;1.52;;
18316;SDS011;9284;52.298;21.164;2024-03-29T10:11:23;3.20;;;1.33;;
18316;SDS011;9284;52.298;21.164;2024-03-29T10:13:51;2.25;;;1.60;;
18316;SDS011;9284;52.298;21.164;2024-03-29T10:16:20;3.83;;;1.30;;
18316;SDS011;9284;52.298;21.164;2024-03-29T10:18:55;2.60;;;1.20;;
18316;SDS011;9284;52.298;21.164;2024-03-29T10:21:25;2.63;;;1.23;;
18316;SDS011;9284;52.298;21.164;2024-03-29T10:23:52;1.55;;;1.20;;
18316;SDS011;9284;52.298;21.164;2024-03-29T10:26:21;2.83;;;1.40;;
18316;SDS011;9284;52.298;21.164;2024-03-29T10:28:49;3.63;;;1.42;;
18316;SDS011;9284;52.298;21.164;2024-03-29T10:31:20;4.35;;;1.75;;
18316;SDS011;9284;52.298;21.164;2024-03-29T10:33:49;2.33;;;1.30;;
18316;SDS011;9284;52.298;21.164;2024-03-29T10:36:18;3.03;;;1.20;;
18316;SDS011;9284;52.298;21.164;2024-03-29T10:38:46;2.58;;;1.30;;
18316;SDS011;9284;52.298;21.164;2024-03-29T10:44:02;3.65;;;1.27;;
18316;SDS011;9284;52.298;21.164;2024-03-29T10:46:30;2.67;;;1.50;;
18316;SDS011;9284;52.298;21.164;2024-03-29T10:48:59;3.35;;;1.20;;
18316;SDS011;9284;52.298;21.164;2024-03-29T10:51:27;3.17;;;1.10;;
18316;SDS011;9284;52.298;21.164;2024-03-29T10:53:55;3.05;;;1.30;;
18316;SDS011;9284;52.298;21.164;2024-03-29T10:56:24;2.53;;;1.10;;
18316;SDS011;9284;52.298;21.164;2024-03-29T10:58:56;3.40;;;1.45;;
18316;SDS011;9284;52.298;21.164;2024-03-29T11:01:28;2.92;;;1.20;;
18316;SDS011;9284;52.298;21.164;2024-03-29T11:03:58;2.55;;;1.27;;
18316;SDS011;9284;52.298;21.164;2024-03-29T11:06:48;6.53;;;1.33;;
18316;SDS011;9284;52.298;21.164;2024-03-29T11:09:19;1.88;;;0.98;;
18316;SDS011;9284;52.298;21.164;2024-03-29T11:11:50;4.30;;;1.48;;
18316;SDS011;9284;52.298;21.164;2024-03-29T11:14:20;3.55;;;1.45;;
18316;SDS011;9284;52.298;21.164;2024-03-29T11:16:56;7.95;;;1.35;;
18316;SDS011;9284;52.298;21.164;2024-03-29T11:19:24;1.50;;;1.00;;
18316;SDS011;9284;52.298;21.164;2024-03-29T11:21:52;2.42;;;1.00;;
18316;SDS011;9284;52.298;21.164;2024-03-29T11:24:21;2.60;;;1.00;;
18316;SDS011;9284;52.298;21.164;2024-03-29T11:27:08;1.85;;;1.20;;
18316;SDS011;9284;52.298;21.164;2024-03-29T11:29:38;2.17;;;1.05;;
18316;SDS011;9284;52.298;21.164;2024-03-29T11:32:11;4.90;;;1.20;;
18316;SDS011;9284;52.298;21.164;2024-03-29T11:34:43;2.42;;;1.20;;
18316;SDS011;9284;52.298;21.164;2024-03-29T11:37:11;1.15;;;0.90;;
18316;SDS011;9284;52.298;21.164;2024-03-29T11:39:39;2.20;;;1.10;;
18316;SDS011;9284;52.298;21.164;2024-03-29T11:42:07;9.90;;;1.33;;
18316;SDS011;9284;52.298;21.164;2024-03-29T11:44:34;4.78;;;1.30;;
18316;SDS011;9284;52.298;21.164;2024-03-29T11:47:03;1.55;;;0.90;;
18316;SDS011;9284;52.298;21.164;2024-03-29T11:49:33;3.42;;;1.27;;
18316;SDS011;9284;52.298;21.164;2024-03-29T11:52:04;1.55;;;0.80;;
18316;SDS011;9284;52.298;21.164;2024-03-29T11:54:38;1.52;;;0.80;;
18316;SDS011;9284;52.298;21.164;2024-03-29T11:57:06;2.38;;;1.08;;
18316;SDS011;9284;52.298;21.164;2024-03-29T11:59:33;3.47;;;1.10;;
18316;SDS011;9284;52.298;21.164;2024-03-29T12:02:20;3.10;;;1.15;;
18316;SDS011;9284;52.298;21.164;2024-03-29T12:04:48;3.40;;;1.05;;
18316;SDS011;9284;52.298;21.164;2024-03-29T12:07:16;2.42;;;0.85;;
18316;SDS011;9284;52.298;21.164;2024-03-29T12:09:43;4.28;;;1.20;;
18316;SDS011;9284;52.298;21.164;2024-03-29T12:12:11;4.47;;;1.20;;
18316;SDS011;9284;52.298;21.164;2024-03-29T12:14:43;1.98;;;1.30;;
18316;SDS011;9284;52.298;21.164;2024-03-29T12:17:10;3.55;;;1.08;;
18316;SDS011;9284;52.298;21.164;2024-03-29T12:19:39;2.53;;;1.40;;
18316;SDS011;9284;52.298;21.164;2024-03-29T12:22:07;2.30;;;1.48;;
18316;SDS011;9284;52.298;21.164;2024-03-29T12:24:35;2.35;;;1.48;;
18316;SDS011;9284;52.298;21.164;2024-03-29T12:27:03;4.53;;;1.05;;
18316;SDS011;9284;52.298;21.164;2024-03-29T12:29:31;6.53;;;1.05;;
18316;SDS011;9284;52.298;21.164;2024-03-29T12:31:59;4.40;;;1.05;;
18316;SDS011;9284;52.298;21.164;2024-03-29T12:34:26;4.38;;;1.25;;
18316;SDS011;9284;52.298;21.164;2024-03-29T12:36:57;3.53;;;0.80;;
18316;SDS011;9284;52.298;21.164;2024-03-29T12:39:24;2.05;;;1.13;;
18316;SDS011;9284;52.298;21.164;2024-03-29T12:41:52;1.38;;;0.90;;
18316;SDS011;9284;52.298;21.164;2024-03-29T12:44:24;1.60;;;1.08;;
18316;SDS011;9284;52.298;21.164;2024-03-29T12:49:39;2.47;;;1.10;;
18316;SDS011;9284;52.298;21.164;2024-03-29T12:52:08;2.08;;;1.20;;
18316;SDS011;9284;52.298;21.164;2024-03-29T12:54:36;2.67;;;1.00;;
18316;SDS011;9284;52.298;21.164;2024-03-29T12:57:04;1.05;;;0.80;;
18316;SDS011;9284;52.298;21.164;2024-03-29T12:59:33;1.38;;;1.00;;
18316;SDS011;9284;52.298;21.164;2024-03-29T13:02:00;2.67;;;0.93;;
18316;SDS011;9284;52.298;21.164;2024-03-29T13:04:29;4.30;;;1.30;;
18316;SDS011;9284;52.298;21.164;2024-03-29T13:06:56;2.05;;;1.15;;
18316;SDS011;9284;52.298;21.164;2024-03-29T13:09:25;2.67;;;1.08;;
18316;SDS011;9284;52.298;21.164;2024-03-29T13:11:53;2.60;;;1.33;;
18316;SDS011;9284;52.298;21.164;2024-03-29T13:14:20;7.13;;;1.38;;
18316;SDS011;9284;52.298;21.164;2024-03-29T13:16:47;2.97;;;1.02;;
18316;SDS011;9284;52.298;21.164;2024-03-29T13:19:15;4.63;;;1.40;;
18316;SDS011;9284;52.298;21.164;2024-03-29T13:21:42;2.60;;;1.00;;
18316;SDS011;9284;52.298;21.164;2024-03-29T13:24:09;5.05;;;1.70;;
18316;SDS011;9284;52.298;21.164;2024-03-29T13:26:55;6.55;;;0.90;;
18316;SDS011;9284;52.298;21.164;2024-03-29T13:29:23;3.47;;;1.33;;
18316;SDS011;9284;52.298;21.164;2024-03-29T13:31:50;1.10;;;0.90;;
18316;SDS011;9284;52.298;21.164;2024-03-29T13:34:17;1.40;;;0.90;;
18316;SDS011;9284;52.298;21.164;2024-03-29T13:36:45;4.13;;;1.00;;
18316;SDS011;9284;52.298;21.164;2024-03-29T13:39:12;2.85;;;0.85;;
18316;SDS011;9284;52.298;21.164;2024-03-29T13:41:40;3.42;;;1.17;;
18316;SDS011;9284;52.298;21.164;2024-03-29T13:44:09;2.15;;;1.10;;
18316;SDS011;9284;52.298;21.164;2024-03-29T13:46:37;3.58;;;0.90;;
18316;SDS011;9284;52.298;21.164;2024-03-29T13:49:04;1.23;;;0.80;;
18316;SDS011;9284;52.298;21.164;2024-03-29T13:51:31;2.53;;;1.05;;
18316;SDS011;9284;52.298;21.164;2024-03-29T13:53:59;1.67;;;1.08;;
18316;SDS011;9284;52.298;21.164;2024-03-29T13:56:26;2.10;;;1.40;;
18316;SDS011;9284;52.298;21.164;2024-03-29T13:58:53;1.33;;;1.00;;
18316;SDS011;9284;52.298;21.164;2024-03-29T14:01:22;3.60;;;1.00;;
18316;SDS011;9284;52.298;21.164;2024-03-29T14:03:50;2.10;;;0.88;;
18316;SDS011;9284;52.298;21.164;2024-03-29T14:06:18;2.85;;;0.82;;
18316;SDS011;9284;52.298;21.164;2024-03-29T14:08:46;2.75;;;1.02;;
18316;SDS011;9284;52.298;21.164;2024-03-29T14:11:13;1.48;;;0.70;;
18316;SDS011;9284;52.298;21.164;2024-03-29T14:13:44;1.35;;;0.88;;
18316;SDS011;9284;52.298;21.164;2024-03-29T14:16:14;2.45;;;1.00;;
18316;SDS011;9284;52.298;21.164;2024-03-29T14:21:29;1.30;;;0.90;;
18316;SDS011;9284;52.298;21.164;2024-03-29T14:23:57;1.58;;;1.05;;
18316;SDS011;9284;52.298;21.164;2024-03-29T14:26:24;1.17;;;0.85;;
18316;SDS011;9284;52.298;21.164;2024-03-29T14:28:52;1.42;;;0.88;;
18316;SDS011;9284;52.298;21.164;2024-03-29T14:31:20;2.95;;;0.90;;
18316;SDS011;9284;52.298;21.164;2024-03-29T14:33:47;1.10;;;0.82;;
18316;SDS011;9284;52.298;21.164;2024-03-29T14:36:16;1.58;;;0.90;;
18316;SDS011;9284;52.298;21.164;2024-03-29T14:38:44;2.10;;;0.90;;
18316;SDS011;9284;52.298;21.164;2024-03-29T14:41:13;5.22;;;1.27;;
18316;SDS011;9284;52.298;21.164;2024-03-29T14:43:40;1.98;;;1.15;;
18316;SDS011;9284;52.298;21.164;2024-03-29T14:46:09;2.13;;;1.00;;
18316;SDS011;9284;52.298;21.164;2024-03-29T14:48:37;1.50;;;0.90;;
18316;SDS011;9284;52.298;21.164;2024-03-29T14:51:03;5.03;;;0.90;;
18316;SDS011;9284;52.298;21.164;2024-03-29T14:53:32;3.28;;;0.80;;
18316;SDS011;9284;52.298;21.164;2024-03-29T14:55:59;3.60;;;0.80;;
18316;SDS011;9284;52.298;21.164;2024-03-29T14:58:28;2.85;;;1.10;;
18316;SDS011;9284;52.298;21.164;2024-03-29T15:00:55;3.67;;;1.08;;
18316;SDS011;9284;52.298;21.164;2024-03-29T15:03:23;1.33;;;0.88;;
18316;SDS011;9284;52.298;21.164;2024-03-29T15:08:56;1.92;;;1.10;;
18316;SDS011;9284;52.298;21.164;2024-03-29T15:11:42;1.50;;;0.90;;
18316;SDS011;9284;52.298;21.164;2024-03-29T15:14:10;2.80;;;0.80;;
18316;SDS011;9284;52.298;21.164;2024-03-29T15:16:37;4.03;;;0.88;;
18316;SDS011;9284;52.298;21.164;2024-03-29T15:19:04;3.50;;;0.80;;
18316;SDS011;9284;52.298;21.164;2024-03-29T15:21:33;2.08;;;1.00;;
18316;SDS011;9284;52.298;21.164;2024-03-29T15:24:04;2.65;;;0.80;;
18316;SDS011;9284;52.298;21.164;2024-03-29T15:26:31;1.67;;;0.90;;
18316;SDS011;9284;52.298;21.164;2024-03-29T15:28:59;2.63;;;0.90;;
18316;SDS011;9284;52.298;21.164;2024-03-29T15:31:33;1.83;;;1.10;;
18316;SDS011;9284;52.298;21.164;2024-03-29T15:34:04;3.20;;;1.00;;